Time;durP1;ratioP1;P1;durP2;ratioP2;P2;SDS_P1;SDS_P2;PMS_P1;PMS_P2;Temp;Humidity;BMP_temperature;BMP_pressure;BME280_temperature;BME280_humidity;BME280_pressure;Samples;Min_cycle;Max_cycle;Signal;HPM_P1;HPM_P2
2022/02/20 00:01:29;;;;;;;4.43;1.23;;;5.40;94.20;;;;;;6215604;22;20544;-82
2022/02/20 00:03:55;;;;;;;5.00;1.20;;;5.40;94.30;;;;;;6216102;22;20399;-82
2022/02/20 00:06:21;;;;;;;1.63;1.10;;;5.40;94.20;;;;;;6218576;22;20989;-82
2022/02/20 00:08:46;;;;;;;2.87;1.20;;;5.40;94.10;;;;;;6217267;22;20580;-81
2022/02/20 00:11:12;;;;;;;2.40;1.50;;;5.40;94.20;;;;;;6216794;22;20159;-81
2022/02/20 00:13:38;;;;;;;2.40;1.00;;;5.50;94.10;;;;;;6221836;22;20233;-81
2022/02/20 00:16:12;;;;;;;2.50;1.00;;;5.50;94.00;;;;;;6241257;22;20473;-81
2022/02/20 00:18:37;;;;;;;2.10;1.17;;;5.60;93.90;;;;;;6218343;22;20393;-81
2022/02/20 00:21:03;;;;;;;4.23;0.80;;;5.60;93.70;;;;;;6215969;22;20502;-81
2022/02/20 00:23:29;;;;;;;1.83;0.97;;;5.60;93.70;;;;;;6216120;22;20743;-81
2022/02/20 00:25:55;;;;;;;2.33;1.17;;;5.70;94.00;;;;;;6216085;22;20548;-81
2022/02/20 00:28:21;;;;;;;1.97;0.90;;;5.70;94.10;;;;;;6215455;22;20249;-81
2022/02/20 00:30:47;;;;;;;6.20;1.27;;;5.80;94.30;;;;;;6213882;22;20224;-81
2022/02/20 00:33:13;;;;;;;5.40;1.03;;;5.80;94.30;;;;;;6216234;22;20871;-81
2022/02/20 00:35:39;;;;;;;2.97;0.90;;;5.80;94.30;;;;;;6213976;22;20470;-81
2022/02/20 00:38:10;;;;;;;1.97;1.10;;;5.80;94.60;;;;;;6213606;22;20406;-81
2022/02/20 00:40:36;;;;;;;7.73;1.30;;;5.80;95.00;;;;;;6207307;22;20381;-81
2022/02/20 00:43:05;;;;;;;1.60;0.90;;;5.80;95.30;;;;;;6216609;22;20562;-81
2022/02/20 00:45:31;;;;;;;4.03;1.00;;;5.80;95.50;;;;;;6212416;22;20387;-81
2022/02/20 00:47:57;;;;;;;2.37;1.13;;;5.80;96.00;;;;;;6209726;22;20412;-82
2022/02/20 00:50:25;;;;;;;2.30;0.90;;;5.70;96.20;;;;;;6214210;22;20401;-82
2022/02/20 00:53:06;;;;;;;2.57;0.80;;;5.70;96.50;;;;;;6212408;22;20549;-82
2022/02/20 00:55:32;;;;;;;4.17;1.17;;;5.70;97.00;;;;;;6211652;22;20385;-82
2022/02/20 00:57:58;;;;;;;2.03;0.60;;;5.70;97.30;;;;;;6212143;22;20777;-83
2022/02/20 01:00:26;;;;;;;5.37;1.10;;;5.70;97.60;;;;;;6212109;22;20545;-83
2022/02/20 01:02:52;;;;;;;1.13;0.80;;;5.70;97.90;;;;;;6212120;22;20396;-83
2022/02/20 01:05:20;;;;;;;2.80;1.70;;;5.60;98.20;;;;;;6214589;22;20928;-83
2022/02/20 01:07:46;;;;;;;1.17;0.80;;;5.60;98.50;;;;;;6210966;22;20202;-83
2022/02/20 01:10:15;;;;;;;4.23;1.00;;;5.60;98.80;;;;;;6212354;22;20859;-82
2022/02/20 01:12:41;;;;;;;1.53;0.93;;;5.60;99.10;;;;;;6213182;22;20785;-83
2022/02/20 01:15:08;;;;;;;4.87;0.87;;;5.50;99.10;;;;;;6214014;22;20404;-81
2022/02/20 01:17:37;;;;;;;2.20;1.10;;;5.50;99.50;;;;;;6215172;22;20778;-81
2022/02/20 01:20:07;;;;;;;5.80;1.00;;;5.50;99.70;;;;;;6241879;22;21175;-81
2022/02/20 01:22:32;;;;;;;3.20;1.10;;;5.40;99.90;;;;;;6213798;22;20446;-81
2022/02/20 01:24:58;;;;;;;2.50;0.80;;;5.50;99.90;;;;;;6220144;22;20395;-81
2022/02/20 01:27:24;;;;;;;5.90;0.80;;;5.40;99.90;;;;;;6214284;22;20583;-81
2022/02/20 01:29:50;;;;;;;1.37;0.90;;;5.40;99.90;;;;;;6213301;22;20160;-81
2022/02/20 01:32:23;;;;;;;3.00;0.70;;;5.50;99.90;;;;;;6209931;22;20902;-81
2022/02/20 01:34:49;;;;;;;5.13;1.10;;;5.40;99.90;;;;;;6210560;22;20155;-81
2022/02/20 01:37:14;;;;;;;2.70;0.93;;;5.40;99.90;;;;;;6212010;22;21256;-81
2022/02/20 01:39:40;;;;;;;0.90;0.60;;;5.40;99.90;;;;;;6210489;22;20657;-81
2022/02/20 01:42:06;;;;;;;3.20;0.70;;;5.30;99.90;;;;;;6213849;22;20162;-81
2022/02/20 01:44:35;;;;;;;2.73;0.73;;;5.30;99.90;;;;;;6211792;22;20156;-81
2022/02/20 01:47:07;;;;;;;4.13;1.07;;;5.30;99.90;;;;;;6211347;22;20468;-81
2022/02/20 01:49:33;;;;;;;12.90;1.60;;;5.40;99.90;;;;;;6211449;22;20384;-81
2022/02/20 01:51:58;;;;;;;2.83;0.93;;;5.30;99.90;;;;;;6214628;22;20591;-81
2022/02/20 01:54:24;;;;;;;2.13;0.70;;;5.30;99.90;;;;;;6211160;22;20208;-81
2022/02/20 01:56:52;;;;;;;1.37;0.93;;;5.30;99.90;;;;;;6208288;22;20166;-80
2022/02/20 01:59:21;;;;;;;1.93;0.90;;;5.30;99.90;;;;;;6209851;22;20567;-82
2022/02/20 02:01:47;;;;;;;3.53;1.47;;;5.30;99.90;;;;;;6212380;22;20400;-81
2022/02/20 02:04:12;;;;;;;2.23;0.70;;;5.30;99.90;;;;;;6209918;22;20377;-81
2022/02/20 02:06:38;;;;;;;4.53;0.90;;;5.30;99.90;;;;;;6214958;22;20276;-82
2022/02/20 02:09:04;;;;;;;3.07;0.80;;;5.30;99.90;;;;;;6214318;22;20250;-82
2022/02/20 02:11:30;;;;;;;2.30;0.80;;;5.30;99.90;;;;;;6208316;22;20817;-82
2022/02/20 02:13:56;;;;;;;4.23;0.93;;;5.30;99.90;;;;;;6211185;22;20673;-81
2022/02/20 02:16:22;;;;;;;2.00;1.33;;;5.30;99.90;;;;;;6212065;22;20900;-82
2022/02/20 02:18:48;;;;;;;2.33;1.30;;;5.40;99.90;;;;;;6209888;22;20658;-82
2022/02/20 02:21:13;;;;;;;0.97;0.80;;;5.40;99.90;;;;;;6211080;22;20170;-82
2022/02/20 02:23:39;;;;;;;1.60;0.50;;;5.40;99.90;;;;;;6214750;22;20398;-82
2022/02/20 02:26:06;;;;;;;1.73;0.60;;;5.40;99.90;;;;;;6211861;22;20234;-82
2022/02/20 02:28:34;;;;;;;1.10;0.60;;;5.40;99.90;;;;;;6214738;22;20432;-82
2022/02/20 02:31:04;;;;;;;1.77;0.90;;;5.40;99.90;;;;;;6212576;22;20805;-81
2022/02/20 02:33:32;;;;;;;1.63;0.87;;;5.50;99.90;;;;;;6209706;22;20755;-82
2022/02/20 02:35:59;;;;;;;4.40;0.60;;;5.40;99.90;;;;;;6211484;22;20435;-82
2022/02/20 02:38:29;;;;;;;2.27;0.97;;;5.50;99.90;;;;;;6209135;22;20991;-82
2022/02/20 02:40:57;;;;;;;2.43;0.87;;;5.50;99.90;;;;;;6211561;22;20394;-82
2022/02/20 02:43:23;;;;;;;1.43;0.67;;;5.50;99.90;;;;;;6212315;22;20393;-82
2022/02/20 02:45:49;;;;;;;3.67;1.00;;;5.50;99.90;;;;;;6212544;22;20389;-82
2022/02/20 02:48:15;;;;;;;1.90;0.70;;;5.50;99.90;;;;;;6215008;22;20457;-82
2022/02/20 02:50:41;;;;;;;1.90;0.90;;;5.50;99.90;;;;;;6217554;22;20847;-82
2022/02/20 02:53:07;;;;;;;3.40;1.80;;;5.50;99.90;;;;;;6215066;22;20597;-82
2022/02/20 02:55:33;;;;;;;2.43;0.77;;;5.60;99.90;;;;;;6222409;22;20150;-81
2022/02/20 02:57:59;;;;;;;2.90;1.10;;;5.60;99.90;;;;;;6225056;22;20463;-82
2022/02/20 03:00:25;;;;;;;3.40;0.73;;;5.60;99.90;;;;;;6225160;22;20412;-82
2022/02/20 03:02:50;;;;;;;1.83;0.83;;;5.60;99.90;;;;;;6215568;22;20173;-82
2022/02/20 03:05:16;;;;;;;1.70;1.10;;;5.60;99.90;;;;;;6214950;22;20793;-83
2022/02/20 03:07:43;;;;;;;3.60;0.70;;;5.60;99.90;;;;;;6213993;22;21079;-82
2022/02/20 03:10:10;;;;;;;3.33;1.10;;;5.60;99.90;;;;;;6216567;22;20159;-81
2022/02/20 03:12:35;;;;;;;1.13;0.60;;;5.70;99.90;;;;;;6214674;22;20535;-81
2022/02/20 03:15:01;;;;;;;1.00;0.80;;;5.60;99.90;;;;;;6211483;22;20808;-81
2022/02/20 03:17:28;;;;;;;2.30;0.70;;;5.70;99.90;;;;;;6212101;22;20426;-81
2022/02/20 03:19:54;;;;;;;4.03;0.73;;;5.70;99.90;;;;;;6210856;22;20378;-81
2022/02/20 03:22:20;;;;;;;1.93;0.70;;;5.70;99.90;;;;;;6211819;22;20417;-81
2022/02/20 03:24:45;;;;;;;3.07;0.70;;;5.70;99.90;;;;;;6213253;22;20655;-81
2022/02/20 03:27:14;;;;;;;3.60;0.93;;;5.70;99.90;;;;;;6211507;22;20190;-81
2022/02/20 03:29:40;;;;;;;1.40;1.30;;;5.70;99.90;;;;;;6209487;22;20418;-80
2022/02/20 03:32:06;;;;;;;1.23;0.50;;;5.80;99.90;;;;;;6211062;22;20416;-81
2022/02/20 03:34:32;;;;;;;1.73;0.63;;;5.70;99.90;;;;;;6212494;22;20381;-81
2022/02/20 03:36:58;;;;;;;0.70;0.40;;;5.80;99.90;;;;;;6209184;22;20747;-81
2022/02/20 03:39:23;;;;;;;1.10;0.43;;;5.80;99.90;;;;;;6214197;22;20156;-81
2022/02/20 03:41:49;;;;;;;2.63;0.80;;;5.80;99.90;;;;;;6209015;22;20877;-81
2022/02/20 03:44:15;;;;;;;2.90;0.50;;;5.80;99.90;;;;;;6211916;22;20161;-81
2022/02/20 03:46:41;;;;;;;1.50;0.70;;;5.80;99.90;;;;;;6210355;22;20958;-82
2022/02/20 03:49:06;;;;;;;3.90;0.87;;;5.90;99.90;;;;;;6212557;22;20158;-81
2022/02/20 03:51:32;;;;;;;1.23;0.90;;;5.90;99.90;;;;;;6212201;22;20184;-82
2022/02/20 03:53:58;;;;;;;0.80;0.60;;;5.90;99.90;;;;;;6213547;22;20161;-82
2022/02/20 03:56:24;;;;;;;3.77;0.67;;;5.90;99.90;;;;;;6213936;22;20161;-81
2022/02/20 03:58:49;;;;;;;2.40;0.77;;;5.90;99.90;;;;;;6210728;22;20382;-81
2022/02/20 04:01:15;;;;;;;2.13;0.70;;;5.90;99.90;;;;;;6210418;22;20160;-81
2022/02/20 04:03:41;;;;;;;1.23;0.57;;;5.90;99.90;;;;;;6213276;22;20169;-81
2022/02/20 04:06:07;;;;;;;2.40;0.70;;;5.90;99.90;;;;;;6210530;22;20900;-81
2022/02/20 04:08:33;;;;;;;1.80;0.60;;;5.90;99.90;;;;;;6210982;22;21159;-81
2022/02/20 04:10:59;;;;;;;2.63;0.73;;;5.90;99.90;;;;;;6215601;22;20654;-81
2022/02/20 04:13:25;;;;;;;1.17;0.40;;;5.90;99.90;;;;;;6212431;22;20166;-81
2022/02/20 04:15:51;;;;;;;0.60;0.60;;;5.90;99.90;;;;;;6211860;22;20386;-81
2022/02/20 04:18:17;;;;;;;0.90;0.80;;;5.90;99.90;;;;;;6211271;22;20398;-81
2022/02/20 04:20:42;;;;;;;1.00;0.60;;;6.00;99.90;;;;;;6211215;22;20582;-81
2022/02/20 04:23:08;;;;;;;1.80;0.37;;;5.90;99.90;;;;;;6211331;22;20598;-81
2022/02/20 04:25:34;;;;;;;1.37;0.40;;;6.00;99.90;;;;;;6214493;22;20247;-81
2022/02/20 04:27:59;;;;;;;0.40;0.40;;;6.00;99.90;;;;;;6210035;22;20428;-81
2022/02/20 04:30:25;;;;;;;3.80;0.70;;;6.00;99.90;;;;;;6209875;22;20163;-81
2022/02/20 04:32:51;;;;;;;1.50;0.50;;;6.00;99.90;;;;;;6239032;22;20150;-81
2022/02/20 04:35:17;;;;;;;2.20;0.50;;;5.90;99.90;;;;;;6209995;22;20381;-81
2022/02/20 04:37:43;;;;;;;1.00;0.47;;;5.90;99.90;;;;;;6212609;22;20671;-80
2022/02/20 04:40:09;;;;;;;1.30;0.50;;;5.90;99.90;;;;;;6213444;22;20491;-81
2022/02/20 04:42:51;;;;;;;2.30;0.57;;;5.90;99.90;;;;;;6217880;22;20387;-81
2022/02/20 04:45:20;;;;;;;1.83;0.90;;;5.90;99.90;;;;;;6240634;22;20370;-81
2022/02/20 04:47:45;;;;;;;0.50;0.40;;;5.90;99.90;;;;;;6214956;22;21036;-81
2022/02/20 04:50:11;;;;;;;2.00;0.57;;;5.90;99.90;;;;;;6215328;22;20615;-81
2022/02/20 04:52:37;;;;;;;0.90;0.63;;;5.90;99.90;;;;;;6213894;22;20189;-81
2022/02/20 04:55:03;;;;;;;0.80;0.57;;;5.90;99.90;;;;;;6213861;22;20160;-81
2022/02/20 04:57:34;;;;;;;1.53;0.50;;;5.90;99.90;;;;;;6216615;22;20162;-82
2022/02/20 05:00:05;;;;;;;0.40;0.37;;;5.90;99.90;;;;;;6214033;22;20399;-81
2022/02/20 05:02:31;;;;;;;0.93;0.40;;;5.80;99.90;;;;;;6213883;22;20737;-81
2022/02/20 05:05:07;;;;;;;1.77;0.40;;;5.80;99.90;;;;;;6213747;22;20396;-82
2022/02/20 05:07:33;;;;;;;0.67;0.50;;;5.80;99.90;;;;;;6214545;22;20460;-82
2022/02/20 05:10:02;;;;;;;0.47;0.30;;;5.90;99.90;;;;;;6212347;22;20701;-82
2022/02/20 05:12:27;;;;;;;1.70;0.50;;;5.90;99.90;;;;;;6211153;22;20385;-81
2022/02/20 05:14:53;;;;;;;0.30;0.30;;;5.90;99.90;;;;;;6206847;22;20658;-82
2022/02/20 05:17:39;;;;;;;0.93;0.50;;;5.90;99.90;;;;;;6209603;22;20600;-82
2022/02/20 05:20:06;;;;;;;0.90;0.43;;;5.80;99.90;;;;;;6211576;22;20323;-82
2022/02/20 05:22:31;;;;;;;1.70;0.70;;;5.80;99.90;;;;;;6213369;22;20852;-82
2022/02/20 05:24:57;;;;;;;0.40;0.30;;;5.80;99.90;;;;;;6213942;22;20937;-82
2022/02/20 05:27:23;;;;;;;0.57;0.57;;;5.80;99.90;;;;;;6213053;22;20699;-82
2022/02/20 05:29:49;;;;;;;1.63;0.50;;;5.80;99.90;;;;;;6217338;22;20688;-82
2022/02/20 05:32:23;;;;;;;0.53;0.50;;;5.80;99.90;;;;;;6225697;22;20214;-83
2022/02/20 05:34:51;;;;;;;1.67;0.60;;;5.80;99.90;;;;;;6252891;22;20136;-82
2022/02/20 05:37:18;;;;;;;1.20;0.80;;;5.70;99.90;;;;;;6210875;22;20747;-82
2022/02/20 05:39:44;;;;;;;1.73;0.63;;;5.70;99.90;;;;;;6210983;22;20855;-82
2022/02/20 05:42:10;;;;;;;1.30;0.60;;;5.70;99.90;;;;;;6209465;22;20871;-82
2022/02/20 05:44:36;;;;;;;1.60;0.50;;;5.70;99.90;;;;;;6217366;22;20634;-82
2022/02/20 05:47:01;;;;;;;0.60;0.60;;;5.70;99.90;;;;;;6210395;22;20645;-82
2022/02/20 05:49:27;;;;;;;1.87;0.50;;;5.70;99.90;;;;;;6209885;22;20153;-82
2022/02/20 05:51:53;;;;;;;0.83;0.50;;;5.70;99.90;;;;;;6208310;22;20305;-82
2022/02/20 05:54:18;;;;;;;1.50;0.63;;;5.70;99.90;;;;;;6211593;22;20159;-82
2022/02/20 05:56:45;;;;;;;1.40;0.40;;;5.70;99.90;;;;;;6211378;22;20156;-82
2022/02/20 05:59:13;;;;;;;0.83;0.60;;;5.70;99.90;;;;;;6211881;22;20187;-82
2022/02/20 06:01:38;;;;;;;2.23;0.60;;;5.70;99.90;;;;;;6210732;22;20408;-81
2022/02/20 06:04:05;;;;;;;1.03;0.37;;;5.70;99.90;;;;;;6212384;22;20775;-82
2022/02/20 06:06:32;;;;;;;1.80;0.50;;;5.80;99.90;;;;;;6213114;22;20182;-82
2022/02/20 06:08:59;;;;;;;0.87;0.50;;;5.80;99.90;;;;;;6213344;22;20399;-82
2022/02/20 06:11:25;;;;;;;2.13;0.60;;;5.70;99.90;;;;;;6214518;22;20481;-81
2022/02/20 06:13:51;;;;;;;0.73;0.50;;;5.80;99.90;;;;;;6217617;22;20393;-82
2022/02/20 06:16:17;;;;;;;0.50;0.50;;;5.80;99.90;;;;;;6212458;22;20407;-82
2022/02/20 06:18:42;;;;;;;0.50;0.50;;;5.80;99.90;;;;;;6209687;22;20154;-82
2022/02/20 06:21:08;;;;;;;0.47;0.40;;;5.80;99.90;;;;;;6207599;23;20218;-82
2022/02/20 06:23:34;;;;;;;1.60;0.60;;;5.80;99.90;;;;;;6204576;23;20160;-82
2022/02/20 06:26:00;;;;;;;1.33;0.50;;;5.80;99.90;;;;;;6205140;23;20568;-81
2022/02/20 06:28:26;;;;;;;2.40;0.80;;;5.90;99.90;;;;;;6207047;23;20168;-81
2022/02/20 06:30:52;;;;;;;1.23;0.50;;;5.90;99.90;;;;;;6206126;23;20384;-81
2022/02/20 06:33:18;;;;;;;1.10;0.37;;;5.90;99.90;;;;;;6206682;23;20459;-81
2022/02/20 06:35:43;;;;;;;0.60;0.50;;;5.90;99.90;;;;;;6208340;23;20696;-81
2022/02/20 06:38:09;;;;;;;0.70;0.70;;;6.00;99.90;;;;;;6208351;23;20612;-81
2022/02/20 06:40:35;;;;;;;0.63;0.50;;;6.00;99.90;;;;;;6211333;23;20182;-81
2022/02/20 06:43:01;;;;;;;1.00;0.40;;;6.10;99.90;;;;;;6213401;23;20249;-81
2022/02/20 06:45:27;;;;;;;1.07;0.57;;;6.00;99.90;;;;;;6211772;23;20771;-81
2022/02/20 06:47:52;;;;;;;2.10;0.60;;;6.00;99.90;;;;;;6208023;23;20701;-81
2022/02/20 06:50:18;;;;;;;0.70;0.50;;;6.10;99.90;;;;;;6211771;23;20173;-81
2022/02/20 06:52:44;;;;;;;0.70;0.50;;;6.00;99.90;;;;;;6213410;23;20157;-82
2022/02/20 06:55:13;;;;;;;0.87;0.40;;;6.10;99.90;;;;;;6212122;23;20214;-82
2022/02/20 06:57:40;;;;;;;1.63;0.40;;;6.10;99.90;;;;;;6211279;23;20403;-82
2022/02/20 07:00:10;;;;;;;0.60;0.50;;;6.10;99.90;;;;;;6216431;22;20785;-82
2022/02/20 07:02:39;;;;;;;2.40;1.07;;;6.10;99.90;;;;;;6212769;23;20447;-82
2022/02/20 07:05:06;;;;;;;0.70;0.70;;;6.10;99.90;;;;;;6211246;23;20550;-82
2022/02/20 07:07:33;;;;;;;2.60;0.90;;;6.10;99.90;;;;;;6208266;23;20840;-82
2022/02/20 07:09:59;;;;;;;3.03;1.20;;;6.20;99.90;;;;;;6208955;23;20757;-82
2022/02/20 07:12:24;;;;;;;0.37;0.37;;;6.20;99.90;;;;;;6210162;23;20396;-82
2022/02/20 07:14:51;;;;;;;0.80;0.43;;;6.20;99.90;;;;;;6215541;23;20395;-82
2022/02/20 07:17:17;;;;;;;1.10;0.50;;;6.20;99.90;;;;;;6217075;23;20534;-82
2022/02/20 07:19:42;;;;;;;0.57;0.53;;;6.20;99.90;;;;;;6215655;23;20382;-82
2022/02/20 07:22:08;;;;;;;0.63;0.40;;;6.20;99.90;;;;;;6217310;23;20410;-82
2022/02/20 07:24:34;;;;;;;0.47;0.47;;;6.30;99.90;;;;;;6217515;23;20654;-84
2022/02/20 07:27:02;;;;;;;0.63;0.50;;;6.30;99.90;;;;;;6216249;23;20557;-84
2022/02/20 07:29:28;;;;;;;0.50;0.40;;;6.30;99.90;;;;;;6215842;23;20158;-82
2022/02/20 07:31:54;;;;;;;1.60;0.50;;;6.40;99.90;;;;;;6215469;23;21075;-85
2022/02/20 07:34:19;;;;;;;0.40;0.40;;;6.40;99.90;;;;;;6216571;23;20155;-82
2022/02/20 07:36:45;;;;;;;0.70;0.60;;;6.40;99.90;;;;;;6212886;23;20172;-82
2022/02/20 07:39:11;;;;;;;0.37;0.37;;;6.40;99.90;;;;;;6215068;23;20962;-82
2022/02/20 07:41:38;;;;;;;0.93;0.50;;;6.40;99.90;;;;;;6215151;23;20394;-82
2022/02/20 07:44:05;;;;;;;1.20;0.53;;;6.40;99.90;;;;;;6214220;23;20886;-81
2022/02/20 07:46:31;;;;;;;1.03;0.67;;;6.40;99.90;;;;;;6219216;23;20449;-82
2022/02/20 07:48:57;;;;;;;1.33;0.60;;;6.50;99.90;;;;;;6226857;23;20939;-84
2022/02/20 07:51:27;;;;;;;0.60;0.43;;;6.50;99.90;;;;;;6227449;23;20794;-83
2022/02/20 07:53:53;;;;;;;0.47;0.47;;;6.50;99.90;;;;;;6223786;23;20416;-83
2022/02/20 07:56:19;;;;;;;2.30;0.50;;;6.60;99.90;;;;;;6217348;23;20389;-83
2022/02/20 07:58:45;;;;;;;2.40;0.60;;;6.60;99.90;;;;;;6217314;23;20447;-83
2022/02/20 08:01:15;;;;;;;0.40;0.40;;;6.70;99.90;;;;;;6218725;23;20158;-84
2022/02/20 08:03:40;;;;;;;3.07;0.80;;;6.60;99.90;;;;;;6218591;23;20388;-83
2022/02/20 08:06:06;;;;;;;0.77;0.60;;;6.70;99.90;;;;;;6216761;23;20441;-84
2022/02/20 08:08:33;;;;;;;1.90;0.77;;;6.70;99.90;;;;;;6213878;23;20493;-83
2022/02/20 08:11:03;;;;;;;12.17;7.50;;;6.90;99.90;;;;;;6218856;23;20151;-83
2022/02/20 08:13:29;;;;;;;1.13;0.60;;;7.00;99.90;;;;;;6212680;23;20694;-83
2022/02/20 08:15:55;;;;;;;2.20;0.80;;;7.00;99.90;;;;;;6209234;23;21029;-84
2022/02/20 08:18:21;;;;;;;3.17;0.70;;;7.10;99.90;;;;;;6212052;23;20400;-84
2022/02/20 08:20:47;;;;;;;0.90;0.67;;;7.10;99.90;;;;;;6208886;23;20186;-83
2022/02/20 08:23:17;;;;;;;1.30;0.90;;;7.10;99.90;;;;;;6208517;23;20394;-82
2022/02/20 08:25:44;;;;;;;1.73;0.60;;;7.10;99.90;;;;;;6212376;23;20143;-83
2022/02/20 08:28:18;;;;;;;2.10;0.57;;;7.10;99.90;;;;;;6208887;23;20984;-83
2022/02/20 08:30:55;;;;;;;1.83;0.60;;;7.10;99.90;;;;;;6209716;23;20667;-85
2022/02/20 08:33:23;;;;;;;1.37;0.60;;;7.20;99.90;;;;;;6214590;23;20394;-84
2022/02/20 08:35:49;;;;;;;1.53;1.20;;;7.20;99.90;;;;;;6212326;23;21308;-84
2022/02/20 08:38:16;;;;;;;0.90;0.60;;;7.30;99.90;;;;;;6216223;23;20389;-84
2022/02/20 08:40:43;;;;;;;0.93;0.63;;;7.30;99.90;;;;;;6213160;23;20155;-84
2022/02/20 08:43:46;;;;;;;0.77;0.77;;;7.30;99.90;;;;;;6213483;23;20437;-85
2022/02/20 08:46:30;;;;;;;0.80;0.60;;;7.40;99.90;;;;;;6213553;23;20843;-85
2022/02/20 08:52:01;;;;;;;1.17;0.83;;;7.40;99.90;;;;;;6216165;23;20730;-85
2022/02/20 08:55:01;;;;;;;1.80;0.80;;;7.50;99.90;;;;;;6217605;23;20398;-85
2022/02/20 08:57:28;;;;;;;1.73;0.60;;;7.60;99.90;;;;;;6215844;23;20382;-85
2022/02/20 08:59:56;;;;;;;2.00;0.70;;;7.60;99.90;;;;;;6188495;23;20848;-85
2022/02/20 09:02:26;;;;;;;1.60;0.60;;;7.70;99.90;;;;;;6213105;23;20846;-85
2022/02/20 09:04:53;;;;;;;1.10;0.70;;;7.80;99.90;;;;;;6215854;23;20400;-85
2022/02/20 09:07:22;;;;;;;0.90;0.50;;;7.90;99.90;;;;;;6209932;23;20534;-84
2022/02/20 09:09:51;;;;;;;1.47;0.43;;;7.90;99.90;;;;;;6188206;23;20615;-85
2022/02/20 09:12:19;;;;;;;0.73;0.40;;;7.90;99.90;;;;;;6212202;23;20398;-84
2022/02/20 09:14:45;;;;;;;1.73;0.60;;;7.90;99.90;;;;;;6209979;23;20393;-85
2022/02/20 09:17:11;;;;;;;0.73;0.47;;;7.90;99.90;;;;;;6210625;23;20393;-85
2022/02/20 09:19:37;;;;;;;2.63;0.50;;;8.00;99.90;;;;;;6213769;23;20158;-84
2022/02/20 09:22:04;;;;;;;0.40;0.40;;;8.10;99.90;;;;;;6235975;22;20735;-86
2022/02/20 09:24:30;;;;;;;1.33;0.50;;;8.10;99.90;;;;;;6217273;22;20158;-85
2022/02/20 09:26:56;;;;;;;0.90;0.90;;;8.10;99.90;;;;;;6225749;22;20923;-86
2022/02/20 09:29:29;;;;;;;1.83;1.00;;;8.10;99.90;;;;;;6225672;22;20389;-83
2022/02/20 09:31:59;;;;;;;0.50;0.50;;;8.10;99.90;;;;;;6247497;22;20208;-84
2022/02/20 09:34:26;;;;;;;0.60;0.60;;;8.20;99.90;;;;;;6193799;22;20404;-84
2022/02/20 09:36:58;;;;;;;1.13;0.53;;;8.20;99.90;;;;;;6216522;22;20894;-85
2022/02/20 09:39:44;;;;;;;0.60;0.60;;;8.20;99.90;;;;;;6228326;22;20385;-84
2022/02/20 09:42:45;;;;;;;1.23;1.00;;;8.30;99.90;;;;;;6239430;22;20936;-84
2022/02/20 09:45:25;;;;;;;1.90;1.20;;;8.30;99.90;;;;;;6213748;22;20397;-84
2022/02/20 09:48:13;;;;;;;1.57;1.07;;;8.30;99.90;;;;;;6243163;22;20441;-84
2022/02/20 09:51:01;;;;;;;0.90;0.90;;;8.40;99.90;;;;;;6249821;22;20390;-83
2022/02/20 09:53:42;;;;;;;1.77;0.80;;;8.40;99.90;;;;;;6243063;22;20388;-85
2022/02/20 09:59:06;;;;;;;0.93;0.40;;;8.40;99.90;;;;;;6255430;22;20422;-84
2022/02/20 10:01:33;;;;;;;0.60;0.50;;;8.50;99.90;;;;;;6217653;22;21043;-85
2022/02/20 10:04:02;;;;;;;0.60;0.60;;;8.60;99.90;;;;;;6214299;22;20400;-84
2022/02/20 10:06:29;;;;;;;0.63;0.50;;;8.50;99.90;;;;;;6225714;22;20477;-85
2022/02/20 10:09:12;;;;;;;0.30;0.30;;;8.60;99.90;;;;;;6216833;22;20753;-86
2022/02/20 10:11:49;;;;;;;0.80;0.67;;;8.70;99.90;;;;;;6218877;22;20396;-85
2022/02/20 10:14:18;;;;;;;0.40;0.40;;;8.80;99.90;;;;;;6201152;22;20667;-85
2022/02/20 10:16:45;;;;;;;1.07;0.50;;;8.70;99.90;;;;;;6198174;22;20385;-85
2022/02/20 10:19:40;;;;;;;1.47;0.50;;;8.90;99.90;;;;;;6220557;22;20395;-85
2022/02/20 10:22:09;;;;;;;1.07;0.50;;;9.00;99.90;;;;;;6216899;23;20404;-86
2022/02/20 10:24:48;;;;;;;2.63;0.90;;;9.10;99.90;;;;;;6192573;23;20401;-85
2022/02/20 10:27:37;;;;;;;0.63;0.50;;;9.30;99.90;;;;;;6218354;23;20854;-85
2022/02/20 10:37:20;;;;;;;0.93;0.77;;;9.50;99.90;;;;;;6214844;22;20374;-85
2022/02/20 10:40:23;;;;;;;0.87;0.77;;;9.50;99.90;;;;;;6205874;23;20400;-86
2022/02/20 10:46:24;;;;;;;1.07;0.60;;;9.60;99.90;;;;;;6217659;22;20380;-86
2022/02/20 10:49:30;;;;;;;0.50;0.37;;;9.60;99.90;;;;;;6213464;22;20421;-86
2022/02/20 10:51:59;;;;;;;0.50;0.50;;;9.50;99.90;;;;;;6213192;23;20413;-85
2022/02/20 10:54:59;;;;;;;1.53;0.67;;;9.70;99.90;;;;;;6210888;23;21103;-85
2022/02/20 10:57:54;;;;;;;1.27;0.77;;;9.80;99.90;;;;;;6212408;23;20385;-85
2022/02/20 11:00:24;;;;;;;0.83;0.30;;;10.10;99.90;;;;;;6186080;23;20840;-85
2022/02/20 11:03:11;;;;;;;1.30;1.13;;;10.10;99.80;;;;;;6211552;23;20478;-85
2022/02/20 11:05:40;;;;;;;0.60;0.40;;;10.30;99.90;;;;;;6210534;23;20708;-85
2022/02/20 11:08:30;;;;;;;1.57;0.50;;;10.20;99.20;;;;;;6214003;23;20795;-84
2022/02/20 11:11:36;;;;;;;0.53;0.50;;;10.10;99.60;;;;;;6209346;23;20927;-86
2022/02/20 11:14:04;;;;;;;0.40;0.40;;;10.20;99.80;;;;;;6216811;23;20413;-88
2022/02/20 11:16:41;;;;;;;;;;;;;;;;;;;;;
2022/02/20 11:21:56;;;;;;;0.53;0.47;;;10.00;99.50;;;;;;6246243;22;20414;-86
2022/02/20 11:24:29;;;;;;;0.90;0.40;;;10.00;99.70;;;;;;6220599;22;20381;-87
2022/02/20 11:30:16;;;;;;;1.20;1.10;;;10.10;99.90;;;;;;6250081;22;20728;-85
2022/02/20 11:33:07;;;;;;;0.53;0.50;;;10.20;99.80;;;;;;6216517;22;20439;-84
2022/02/20 11:35:45;;;;;;;0.80;0.60;;;10.20;99.80;;;;;;6220887;22;20417;-86
2022/02/20 11:38:16;;;;;;;0.90;0.30;;;10.30;99.80;;;;;;6220432;22;20419;-86
2022/02/20 11:41:12;;;;;;;0.37;0.37;;;10.30;99.40;;;;;;6192928;22;20416;-86
2022/02/20 11:44:28;;;;;;;3.13;0.40;;;10.00;98.80;;;;;;6220894;22;20771;-86
2022/02/20 11:46:57;;;;;;;1.17;0.60;;;10.00;99.20;;;;;;6249047;22;20874;-86
2022/02/20 11:49:50;;;;;;;0.50;0.50;;;10.10;99.60;;;;;;6244294;22;20395;-86
2022/02/20 11:52:58;;;;;;;1.60;0.80;;;10.00;99.30;;;;;;6218671;22;20664;-86
2022/02/20 11:58:42;;;;;;;0.80;0.50;;;10.00;99.20;;;;;;6245851;22;20490;-86
2022/02/20 12:01:11;;;;;;;0.70;0.40;;;10.00;99.30;;;;;;6221454;22;20385;-87
2022/02/20 12:03:47;;;;;;;2.90;2.70;;;10.00;99.30;;;;;;6222499;22;20680;-86
2022/02/20 12:06:18;;;;;;;0.80;0.37;;;10.00;99.40;;;;;;6218055;22;20618;-86
2022/02/20 12:11:25;;;;;;;1.00;0.80;;;10.10;99.30;;;;;;6244746;22;20468;-84
2022/02/20 12:14:15;;;;;;;1.40;1.30;;;10.00;99.40;;;;;;6220914;22;20489;-84
2022/02/20 12:16:52;;;;;;;2.10;0.60;;;10.00;99.40;;;;;;6221614;22;20407;-84
2022/02/20 12:19:39;;;;;;;2.27;2.07;;;10.00;99.30;;;;;;6218776;22;20465;-84
2022/02/20 12:22:06;;;;;;;1.50;1.40;;;10.00;99.40;;;;;;6214159;23;20397;-85
2022/02/20 12:24:49;;;;;;;0.90;0.57;;;10.10;99.60;;;;;;6213367;23;20900;-85
2022/02/20 12:27:18;;;;;;;0.37;0.37;;;10.20;99.80;;;;;;6216668;23;20441;-85
2022/02/20 12:29:51;;;;;;;0.77;0.40;;;10.20;99.70;;;;;;6214089;22;20602;-85
2022/02/20 12:32:25;;;;;;;0.40;0.30;;;10.10;99.50;;;;;;6212169;23;20505;-85
2022/02/20 12:35:01;;;;;;;0.60;0.33;;;10.00;99.90;;;;;;6210955;23;20460;-85
2022/02/20 12:37:58;;;;;;;0.63;0.63;;;10.00;99.90;;;;;;6212575;23;20733;-85
2022/02/20 12:41:09;;;;;;;1.87;0.83;;;10.00;99.90;;;;;;6211402;23;20774;-85
2022/02/20 12:44:03;;;;;;;0.80;0.33;;;9.90;99.90;;;;;;6213940;23;20389;-86
2022/02/20 12:47:14;;;;;;;1.20;0.53;;;9.80;99.90;;;;;;6216007;23;20513;-85
2022/02/20 12:50:01;;;;;;;0.90;0.57;;;9.70;99.90;;;;;;6212480;23;20389;-86
2022/02/20 12:52:34;;;;;;;0.53;0.53;;;9.80;99.90;;;;;;6214937;23;20492;-85
2022/02/20 12:55:01;;;;;;;1.17;0.40;;;9.90;99.90;;;;;;6214141;23;20727;-85
2022/02/20 12:57:40;;;;;;;0.47;0.47;;;9.90;99.90;;;;;;6217409;22;20710;-85
2022/02/20 13:00:19;;;;;;;2.83;0.73;;;9.90;99.90;;;;;;6212365;23;20518;-85
2022/02/20 13:02:58;;;;;;;1.33;0.60;;;9.90;99.90;;;;;;6210601;23;20394;-85
2022/02/20 13:05:57;;;;;;;1.93;0.50;;;10.00;99.90;;;;;;6220339;22;20386;-85
2022/02/20 13:08:32;;;;;;;1.10;0.60;;;10.10;99.90;;;;;;6211511;22;20963;-85
2022/02/20 13:13:48;;;;;;;1.90;0.73;;;10.20;99.90;;;;;;6216063;22;21205;-86
2022/02/20 13:16:16;;;;;;;0.63;0.47;;;10.30;99.90;;;;;;6193420;23;20390;-85
2022/02/20 13:21:24;;;;;;;0.50;0.50;;;10.30;99.90;;;;;;6236453;22;20863;-85
2022/02/20 13:27:11;;;;;;;0.90;0.50;;;10.30;99.90;;;;;;6249465;22;20818;-85
2022/02/20 13:29:39;;;;;;;1.37;0.80;;;10.20;99.90;;;;;;6249371;22;20407;-85
2022/02/20 13:32:15;;;;;;;0.40;0.40;;;10.10;99.90;;;;;;6222702;22;20389;-85
2022/02/20 13:34:59;;;;;;;0.90;0.70;;;10.00;99.90;;;;;;6223050;22;20715;-85
2022/02/20 13:37:43;;;;;;;0.50;0.50;;;9.90;99.90;;;;;;6222867;22;20395;-85
2022/02/20 13:40:31;;;;;;;0.70;0.50;;;10.00;99.90;;;;;;6245763;22;20736;-85
2022/02/20 13:43:09;;;;;;;0.67;0.40;;;10.10;99.90;;;;;;6243171;22;20400;-85
2022/02/20 13:45:43;;;;;;;1.80;0.90;;;10.10;99.90;;;;;;6198919;22;20725;-85
2022/02/20 13:48:35;;;;;;;1.23;0.50;;;10.30;99.90;;;;;;6223659;22;20774;-85
2022/02/20 13:51:40;;;;;;;1.50;0.60;;;10.20;99.90;;;;;;6221365;22;20788;-86